createdAt,value
2022-09-28T00:01:36.834Z,2.50
2022-09-28T00:03:39.603Z,3.03
2022-09-28T00:05:42.195Z,2.83
2022-09-28T00:07:45.009Z,2.93
2022-09-28T00:09:47.553Z,3.87
2022-09-28T00:11:50.054Z,3.03
2022-09-28T00:13:56.694Z,3.30
2022-09-28T00:16:12.326Z,3.00
2022-09-28T00:18:15.057Z,3.23
2022-09-28T00:20:18.154Z,3.10
2022-09-28T00:22:20.693Z,3.00
2022-09-28T00:24:27.500Z,3.43
2022-09-28T00:26:33.037Z,3.13
2022-09-28T00:28:35.630Z,3.40
2022-09-28T00:30:38.180Z,2.80
2022-09-28T00:32:40.755Z,2.87
2022-09-28T00:34:49.023Z,3.23
2022-09-28T00:36:51.609Z,3.00
2022-09-28T00:38:56.558Z,3.60
2022-09-28T00:40:59.663Z,2.90
2022-09-28T00:43:20.951Z,2.63
2022-09-28T00:45:26.178Z,2.67
2022-09-28T00:47:44.110Z,2.70
2022-09-28T00:50:00.630Z,2.33
2022-09-28T00:52:06.113Z,2.63
2022-09-28T00:54:10.440Z,2.95
2022-09-28T00:56:19.218Z,2.50
2022-09-28T00:58:28.070Z,3.13
2022-09-28T01:00:30.814Z,3.00
2022-09-28T01:02:33.737Z,2.73
2022-09-28T01:04:38.334Z,2.73
2022-09-28T01:06:41.339Z,2.53
2022-09-28T01:08:46.018Z,3.15
2022-09-28T01:10:51.277Z,3.47
2022-09-28T01:12:55.782Z,2.80
2022-09-28T01:15:00.646Z,2.67
2022-09-28T01:17:17.338Z,3.77
2022-09-28T01:20:00.824Z,3.40
2022-09-28T01:22:19.968Z,3.30
2022-09-28T01:24:42.233Z,3.30
2022-09-28T01:26:57.961Z,3.80
2022-09-28T01:29:41.679Z,4.00
2022-09-28T01:31:51.589Z,3.30
2022-09-28T01:34:05.684Z,3.20
2022-09-28T01:36:27.701Z,2.90
2022-09-28T01:38:37.925Z,3.07
2022-09-28T01:40:41.601Z,3.23
2022-09-28T01:42:47.247Z,3.07
2022-09-28T01:44:53.268Z,2.87
2022-09-28T01:47:03.598Z,3.77
2022-09-28T01:49:14.849Z,2.90
2022-09-28T01:52:03.146Z,3.30
2022-09-28T01:54:15.398Z,3.00
2022-09-28T01:56:33.605Z,3.07
2022-09-28T01:58:53.407Z,3.10
2022-09-28T02:01:11.758Z,2.97
2022-09-28T02:03:32.089Z,2.73
2022-09-28T02:05:41.232Z,3.30
2022-09-28T02:08:21.333Z,2.57
2022-09-28T02:10:34.477Z,2.27
2022-09-28T02:12:44.630Z,2.57
2022-09-28T02:14:50.116Z,3.10
2022-09-28T02:16:54.487Z,2.67
2022-09-28T02:19:03.887Z,2.90
2022-09-28T02:21:27.666Z,2.40
2022-09-28T02:23:35.478Z,2.97
2022-09-28T02:25:53.157Z,2.20
2022-09-28T02:28:00.694Z,2.67
2022-09-28T02:30:06.527Z,1.90
2022-09-28T02:32:09.179Z,2.50
2022-09-28T02:34:11.943Z,2.30
2022-09-28T02:36:15.187Z,2.63
2022-09-28T02:38:47.186Z,2.40
2022-09-28T02:41:32.302Z,2.30
2022-09-28T02:43:52.581Z,2.77
2022-09-28T02:46:35.945Z,2.50
2022-09-28T02:49:27.324Z,2.57
2022-09-28T02:51:52.992Z,2.70
2022-09-28T02:54:36.718Z,2.60
2022-09-28T02:57:03.621Z,3.10
2022-09-28T02:59:37.740Z,3.00
2022-09-28T03:02:03.125Z,2.33
2022-09-28T03:04:42.018Z,3.70
2022-09-28T03:07:21.938Z,3.40
2022-09-28T03:09:38.184Z,3.23
2022-09-28T03:11:51.899Z,3.47
2022-09-28T03:13:55.224Z,3.50
2022-09-28T03:16:12.474Z,3.20
2022-09-28T03:18:16.559Z,3.37
2022-09-28T03:20:21.403Z,3.87
2022-09-28T03:22:24.384Z,3.87
2022-09-28T03:24:27.036Z,3.90
2022-09-28T03:26:35.257Z,4.10
2022-09-28T03:28:38.036Z,3.60
2022-09-28T03:30:42.981Z,3.23
2022-09-28T03:32:45.715Z,3.23
2022-09-28T03:34:48.649Z,3.77
2022-09-28T03:36:51.223Z,3.10
2022-09-28T03:38:56.174Z,3.27
2022-09-28T03:41:00.812Z,3.30
2022-09-28T03:43:09.313Z,3.03
2022-09-28T03:45:12.189Z,2.97
2022-09-28T03:47:17.366Z,3.27
2022-09-28T03:49:19.948Z,2.80
2022-09-28T03:51:25.705Z,3.50
2022-09-28T03:53:29.960Z,2.80
2022-09-28T03:55:33.058Z,2.63
2022-09-28T03:57:35.890Z,2.93
2022-09-28T03:59:38.467Z,2.50
2022-09-28T04:01:41.221Z,3.13
2022-09-28T04:03:44.746Z,3.30
2022-09-28T04:05:52.257Z,3.03
2022-09-28T04:07:58.265Z,1.90
2022-09-28T04:10:00.886Z,3.20
2022-09-28T04:12:04.696Z,2.60
2022-09-28T04:14:09.018Z,3.00
2022-09-28T04:16:12.078Z,3.03
2022-09-28T04:18:19.031Z,2.70
2022-09-28T04:21:10.132Z,2.77
2022-09-28T04:23:16.814Z,2.97
2022-09-28T04:25:19.434Z,3.07
2022-09-28T04:27:42.135Z,3.07
2022-09-28T04:29:44.794Z,3.07
2022-09-28T04:31:52.233Z,2.72
2022-09-28T04:33:58.999Z,2.67
2022-09-28T04:36:01.773Z,3.43
2022-09-28T04:38:04.448Z,3.53
2022-09-28T04:40:16.049Z,3.20
2022-09-28T04:42:31.518Z,3.10
2022-09-28T04:44:34.197Z,3.27
2022-09-28T04:46:43.364Z,3.70
2022-09-28T04:49:04.339Z,3.47
2022-09-28T04:51:16.469Z,3.60
2022-09-28T04:53:19.103Z,3.60
2022-09-28T04:55:22.488Z,3.63
2022-09-28T04:57:25.158Z,3.27
2022-09-28T04:59:27.715Z,4.03
2022-09-28T05:01:30.663Z,4.13
2022-09-28T05:03:36.325Z,3.97
2022-09-28T05:05:59.630Z,4.33
2022-09-28T05:08:14.248Z,6.97
2022-09-28T05:10:18.707Z,5.93
2022-09-28T05:12:21.588Z,5.90
2022-09-28T05:14:25.328Z,6.20
2022-09-28T05:16:29.953Z,5.32
2022-09-28T05:18:57.041Z,4.60
2022-09-28T05:20:59.958Z,4.63
2022-09-28T05:23:02.592Z,4.30
2022-09-28T05:25:06.278Z,4.80
2022-09-28T05:27:20.232Z,3.80
2022-09-28T05:29:32.377Z,4.23
2022-09-28T05:31:53.620Z,5.17
2022-09-28T05:34:08.724Z,5.40
2022-09-28T05:36:11.918Z,5.17
2022-09-28T05:38:15.684Z,5.23
2022-09-28T05:40:19.479Z,6.10
2022-09-28T05:42:23.389Z,5.80
2022-09-28T05:44:26.110Z,5.93
2022-09-28T05:46:30.057Z,6.10
2022-09-28T05:48:36.481Z,5.67
2022-09-28T05:50:39.078Z,4.60
2022-09-28T05:52:41.967Z,4.70
2022-09-28T05:54:44.705Z,3.90
2022-09-28T05:56:48.620Z,4.33
2022-09-28T05:58:52.498Z,3.87
2022-09-28T06:00:58.224Z,3.60
2022-09-28T06:03:09.201Z,3.47
2022-09-28T06:05:12.545Z,3.73
2022-09-28T06:07:15.441Z,3.78
2022-09-28T06:09:21.623Z,4.00
2022-09-28T06:11:45.734Z,3.00
2022-09-28T06:13:59.754Z,3.30
2022-09-28T06:16:07.953Z,2.83
2022-09-28T06:18:16.262Z,3.47
2022-09-28T06:20:57.103Z,2.87
2022-09-28T06:23:12.302Z,3.10
2022-09-28T06:25:14.833Z,2.90
2022-09-28T06:27:17.704Z,3.13
2022-09-28T06:29:27.466Z,3.50
2022-09-28T06:31:30.289Z,3.00
2022-09-28T06:33:33.038Z,2.80
2022-09-28T06:35:36.271Z,2.20
2022-09-28T06:37:39.551Z,2.80
2022-09-28T06:39:42.254Z,3.00
2022-09-28T06:41:44.830Z,2.93
2022-09-28T06:43:52.274Z,2.90
2022-09-28T06:46:31.480Z,2.40
2022-09-28T06:49:08.534Z,2.40
2022-09-28T06:51:31.290Z,2.53
2022-09-28T06:53:42.722Z,2.42
2022-09-28T06:55:53.043Z,2.73
2022-09-28T06:58:05.226Z,3.47
2022-09-28T07:00:08.810Z,3.20
2022-09-28T07:02:15.598Z,2.90
2022-09-28T07:04:42.255Z,3.50
2022-09-28T07:07:14.549Z,3.57
2022-09-28T07:09:31.756Z,3.13
2022-09-28T07:11:54.585Z,3.37
2022-09-28T07:14:02.451Z,2.70
2022-09-28T07:16:06.428Z,2.90
2022-09-28T07:18:10.949Z,2.73
2022-09-28T07:20:19.213Z,1.92
2022-09-28T07:22:36.457Z,2.10
2022-09-28T07:24:44.971Z,2.30
2022-09-28T07:27:28.750Z,2.50
2022-09-28T07:29:55.958Z,1.83
2022-09-28T07:32:09.158Z,2.90
2022-09-28T07:34:43.692Z,2.10
2022-09-28T07:37:02.756Z,1.93
2022-09-28T07:39:05.366Z,2.17
2022-09-28T07:41:12.316Z,2.27
2022-09-28T07:43:24.596Z,1.97
2022-09-28T07:45:35.308Z,2.27
2022-09-28T07:47:38.117Z,2.22
2022-09-28T07:50:04.051Z,2.60
2022-09-28T07:52:31.285Z,2.30
2022-09-28T07:55:04.563Z,1.87
2022-09-28T07:57:48.337Z,1.70
2022-09-28T08:00:02.583Z,1.90
2022-09-28T08:02:20.121Z,1.13
2022-09-28T08:04:23.896Z,1.50
2022-09-28T08:06:26.895Z,1.70
2022-09-28T08:08:30.630Z,1.47
2022-09-28T08:10:34.432Z,1.60
2022-09-28T08:13:00.530Z,1.87
2022-09-28T08:15:18.512Z,1.00
2022-09-28T08:17:49.620Z,1.90
2022-09-28T08:20:13.185Z,1.83
2022-09-28T08:22:20.620Z,1.70
2022-09-28T08:24:25.772Z,1.70
2022-09-28T08:26:29.246Z,1.83
2022-09-28T08:28:31.896Z,1.80
2022-09-28T08:30:38.740Z,1.60
2022-09-28T08:32:54.925Z,1.83
2022-09-28T08:35:12.544Z,1.60
2022-09-28T08:37:27.355Z,1.77
2022-09-28T08:40:03.662Z,1.80
2022-09-28T08:42:38.629Z,1.43
2022-09-28T08:44:52.112Z,1.70
2022-09-28T08:47:49.658Z,2.07
2022-09-28T08:50:04.200Z,2.22
2022-09-28T08:52:37.625Z,1.80
2022-09-28T08:55:26.882Z,1.90
2022-09-28T08:58:08.971Z,1.73
2022-09-28T09:00:48.010Z,2.10
2022-09-28T09:02:52.107Z,1.87
2022-09-28T09:04:58.083Z,2.00
2022-09-28T09:07:34.449Z,1.80
2022-09-28T09:10:10.806Z,1.80
2022-09-28T09:12:47.751Z,1.90
2022-09-28T09:15:11.668Z,2.10
2022-09-28T09:17:50.164Z,2.60
2022-09-28T09:20:45.584Z,2.97
2022-09-28T09:23:39.207Z,2.20
2022-09-28T09:25:50.804Z,2.63
2022-09-28T09:28:22.734Z,2.17
2022-09-28T09:30:30.328Z,2.10
2022-09-28T09:33:14.076Z,3.07
2022-09-28T09:36:07.909Z,2.43
2022-09-28T09:39:15.253Z,2.10
2022-09-28T09:41:54.925Z,2.43
2022-09-28T09:45:14.898Z,3.37
2022-09-28T09:47:50.986Z,2.63
2022-09-28T09:50:19.096Z,2.80
2022-09-28T09:53:07.680Z,2.40
2022-09-28T09:55:29.666Z,2.40
2022-09-28T09:58:11.706Z,2.83
2022-09-28T10:00:20.281Z,2.20
2022-09-28T10:02:36.636Z,2.60
2022-09-28T10:04:48.674Z,1.77
2022-09-28T10:07:08.950Z,2.10
2022-09-28T10:09:31.698Z,2.87
2022-09-28T10:11:54.116Z,2.03
2022-09-28T10:13:57.866Z,2.80
2022-09-28T10:16:26.741Z,3.10
2022-09-28T10:18:35.963Z,3.23
2022-09-28T10:21:12.815Z,3.70
2022-09-28T10:23:33.963Z,3.50
2022-09-28T10:25:38.191Z,2.67
2022-09-28T10:27:49.349Z,3.27
2022-09-28T10:30:19.027Z,2.85
2022-09-28T10:32:26.914Z,2.40
2022-09-28T10:34:32.171Z,2.70
2022-09-28T10:37:10.058Z,3.20
2022-09-28T10:39:46.391Z,2.97
2022-09-28T10:41:51.538Z,2.70
2022-09-28T10:44:11.842Z,3.30
2022-09-28T10:46:23.872Z,3.33
2022-09-28T10:48:39.810Z,2.90
2022-09-28T10:50:43.161Z,2.90
2022-09-28T10:52:48.574Z,3.17
2022-09-28T10:55:30.631Z,2.70
2022-09-28T10:57:37.049Z,3.20
2022-09-28T10:59:46.723Z,3.10
2022-09-28T11:02:35.724Z,3.90
2022-09-28T11:05:02.766Z,3.07
2022-09-28T11:07:26.944Z,3.47
2022-09-28T11:09:43.269Z,3.50
2022-09-28T11:11:47.289Z,3.00
2022-09-28T11:13:59.757Z,3.40
2022-09-28T11:16:03.579Z,2.53
2022-09-28T11:18:39.502Z,3.40
2022-09-28T11:20:45.618Z,3.53
2022-09-28T11:22:51.425Z,3.13
2022-09-28T11:25:17.321Z,2.60
2022-09-28T11:27:25.483Z,3.00
2022-09-28T11:29:41.844Z,4.37
2022-09-28T11:32:03.287Z,3.00
2022-09-28T11:34:36.408Z,2.70
2022-09-28T11:37:15.752Z,3.33
2022-09-28T11:39:34.403Z,2.20
2022-09-28T11:42:20.290Z,2.83
2022-09-28T11:44:46.820Z,2.57
2022-09-28T11:47:19.737Z,2.87
2022-09-28T11:49:53.794Z,2.60
2022-09-28T11:52:04.198Z,2.30
2022-09-28T11:54:33.745Z,2.17
2022-09-28T11:56:48.723Z,2.63
2022-09-28T11:58:56.168Z,2.07
2022-09-28T12:01:27.856Z,2.83
2022-09-28T12:04:10.892Z,2.40
2022-09-28T12:06:24.776Z,2.60
2022-09-28T12:08:37.069Z,2.23
2022-09-28T12:11:15.750Z,2.57
2022-09-28T12:13:48.116Z,2.87
2022-09-28T12:16:38.477Z,3.00
2022-09-28T12:18:44.724Z,3.30
2022-09-28T12:20:53.357Z,2.70
2022-09-28T12:23:22.806Z,2.50
2022-09-28T12:25:28.813Z,2.20
2022-09-28T12:27:58.366Z,2.80
2022-09-28T12:30:26.435Z,3.00
2022-09-28T12:32:57.437Z,2.60
2022-09-28T12:35:00.271Z,2.50
2022-09-28T12:37:33.323Z,2.37
2022-09-28T12:39:58.961Z,2.03
2022-09-28T12:42:41.377Z,1.90
2022-09-28T12:45:20.033Z,2.00
2022-09-28T12:47:42.205Z,1.60
2022-09-28T12:53:07.463Z,1.90
2022-09-28T12:55:37.579Z,1.30
2022-09-28T12:58:10.460Z,1.37
2022-09-28T13:00:24.726Z,1.70
2022-09-28T13:03:12.306Z,1.40
2022-09-28T13:05:55.863Z,1.73
2022-09-28T13:08:16.860Z,1.30
2022-09-28T13:10:34.131Z,1.47
2022-09-28T13:13:20.854Z,1.20
2022-09-28T13:15:52.070Z,1.40
2022-09-28T13:18:13.049Z,1.10
2022-09-28T13:20:38.121Z,1.10
2022-09-28T13:23:17.742Z,1.00
2022-09-28T13:25:22.538Z,1.13
2022-09-28T13:27:39.767Z,1.23
2022-09-28T13:29:43.356Z,1.20
2022-09-28T13:31:59.127Z,1.30
2022-09-28T13:34:03.631Z,1.27
2022-09-28T13:36:28.745Z,1.40
2022-09-28T13:38:49.493Z,0.90
2022-09-28T13:41:11.882Z,0.90
2022-09-28T13:43:28.835Z,1.60
2022-09-28T13:45:50.682Z,1.10
2022-09-28T13:48:00.278Z,1.10
2022-09-28T13:50:36.327Z,1.00
2022-09-28T13:52:49.592Z,1.30
2022-09-28T13:55:33.201Z,1.30
2022-09-28T13:57:48.810Z,1.90
2022-09-28T14:00:25.400Z,1.47
2022-09-28T14:02:48.363Z,0.97
2022-09-28T14:05:03.674Z,1.10
2022-09-28T14:07:24.519Z,1.00
2022-09-28T14:09:47.106Z,1.10
2022-09-28T14:12:03.106Z,1.00
2022-09-28T14:14:08.477Z,1.00
2022-09-28T14:16:32.674Z,1.10
2022-09-28T14:18:36.883Z,1.10
2022-09-28T14:20:58.417Z,1.27
2022-09-28T14:23:12.083Z,1.20
2022-09-28T14:25:23.695Z,1.70
2022-09-28T14:28:01.386Z,1.60
2022-09-28T14:30:11.523Z,1.20
2022-09-28T14:32:17.944Z,2.10
2022-09-28T14:34:42.474Z,2.07
2022-09-28T14:37:07.669Z,1.90
2022-09-28T14:39:56.468Z,2.13
2022-09-28T14:42:10.650Z,2.00
2022-09-28T14:44:16.512Z,2.17
2022-09-28T14:46:27.673Z,2.07
2022-09-28T14:48:54.501Z,1.63
2022-09-28T14:51:33.860Z,2.00
2022-09-28T14:53:39.128Z,1.80
2022-09-28T14:55:55.719Z,1.77
2022-09-28T14:57:59.320Z,1.70
2022-09-28T15:00:15.954Z,1.80
2022-09-28T15:02:31.762Z,1.55
2022-09-28T15:04:39.331Z,1.60
2022-09-28T15:06:51.127Z,1.50
2022-09-28T15:08:53.843Z,1.70
2022-09-28T15:10:58.811Z,2.13
2022-09-28T15:13:05.432Z,1.95
2022-09-28T15:15:31.775Z,1.80
2022-09-28T15:17:40.370Z,1.80
2022-09-28T15:20:03.941Z,1.60
2022-09-28T15:22:18.546Z,2.10
2022-09-28T15:24:32.465Z,2.20
2022-09-28T15:26:35.178Z,2.93
2022-09-28T15:28:44.985Z,4.60
2022-09-28T15:30:49.219Z,5.07
2022-09-28T15:33:17.197Z,6.57
2022-09-28T15:35:24.395Z,6.10
2022-09-28T15:37:39.608Z,6.20
2022-09-28T15:39:44.220Z,5.82
2022-09-28T15:41:49.949Z,4.53
2022-09-28T15:44:10.717Z,5.03
2022-09-28T15:46:19.019Z,5.10
2022-09-28T15:48:43.159Z,4.20
2022-09-28T15:51:10.842Z,4.90
2022-09-28T15:53:18.682Z,3.60
2022-09-28T15:55:34.185Z,3.00
2022-09-28T15:57:39.743Z,3.33
2022-09-28T15:59:43.925Z,2.73
2022-09-28T16:01:46.482Z,2.70
2022-09-28T16:03:49.101Z,2.50
2022-09-28T16:05:58.619Z,2.93
2022-09-28T16:08:04.154Z,2.40
2022-09-28T16:10:36.011Z,2.90
2022-09-28T16:12:38.556Z,2.67
2022-09-28T16:14:41.079Z,2.70
2022-09-28T16:16:50.751Z,2.57
2022-09-28T16:18:55.355Z,2.33
2022-09-28T16:21:25.586Z,2.13
2022-09-28T16:23:34.004Z,2.50
2022-09-28T16:25:39.316Z,2.10
2022-09-28T16:27:44.981Z,2.60
2022-09-28T16:30:27.463Z,2.37
2022-09-28T16:32:41.500Z,2.60
2022-09-28T16:34:44.025Z,2.50
2022-09-28T16:36:49.228Z,2.50
2022-09-28T16:38:54.422Z,2.33
2022-09-28T16:40:59.519Z,2.60
2022-09-28T16:43:06.012Z,2.07
2022-09-28T16:45:18.455Z,2.17
2022-09-28T16:47:21.007Z,2.37
2022-09-28T16:49:25.620Z,2.43
2022-09-28T16:51:28.754Z,2.63
2022-09-28T16:53:57.214Z,2.47
2022-09-28T16:56:01.261Z,2.50
2022-09-28T16:58:04.928Z,2.87
2022-09-28T17:00:18.234Z,2.40
2022-09-28T17:02:45.698Z,2.40
2022-09-28T17:04:49.540Z,2.37
2022-09-28T17:07:01.279Z,2.07
2022-09-28T17:09:06.951Z,2.10
2022-09-28T17:11:24.115Z,2.20
2022-09-28T17:13:33.353Z,2.00
2022-09-28T17:15:35.967Z,1.80
2022-09-28T17:17:38.630Z,2.20
2022-09-28T17:19:41.880Z,2.43
2022-09-28T17:21:44.457Z,2.23
2022-09-28T17:23:51.223Z,2.85
2022-09-28T17:25:55.588Z,2.60
2022-09-28T17:27:59.047Z,2.87
2022-09-28T17:30:01.807Z,2.40
2022-09-28T17:32:17.022Z,2.57
2022-09-28T17:34:20.868Z,2.80
2022-09-28T17:36:25.618Z,2.80
2022-09-28T17:38:28.469Z,2.80
2022-09-28T17:40:31.376Z,2.67
2022-09-28T17:42:34.046Z,4.23
2022-09-28T17:44:36.782Z,4.68
2022-09-28T17:46:48.647Z,17.67
2022-09-28T17:48:51.649Z,38.60
2022-09-28T17:50:54.259Z,41.92
2022-09-28T17:52:59.462Z,36.47
2022-09-28T17:55:02.047Z,30.30
2022-09-28T17:57:04.585Z,29.70
2022-09-28T17:59:12.548Z,27.43
2022-09-28T18:01:15.206Z,25.17
2022-09-28T18:03:24.021Z,21.30
2022-09-28T18:05:28.362Z,19.33
2022-09-28T18:07:31.792Z,20.87
2022-09-28T18:09:34.430Z,17.17
2022-09-28T18:11:44.002Z,14.10
2022-09-28T18:13:47.017Z,14.07
2022-09-28T18:15:54.511Z,13.17
2022-09-28T18:17:57.251Z,11.75
2022-09-28T18:19:59.965Z,10.13
2022-09-28T18:22:02.608Z,8.50
2022-09-28T18:24:05.432Z,7.97
2022-09-28T18:26:16.098Z,7.40
2022-09-28T18:28:18.840Z,6.57
2022-09-28T18:30:21.499Z,6.80
2022-09-28T18:32:24.254Z,6.83
2022-09-28T18:34:26.835Z,5.03
2022-09-28T18:36:31.489Z,4.30
2022-09-28T18:38:38.394Z,4.50
2022-09-28T18:40:41.309Z,4.37
2022-09-28T18:42:44.490Z,3.70
2022-09-28T18:44:47.179Z,3.90
2022-09-28T18:46:51.554Z,3.47
2022-09-28T18:48:57.193Z,3.20
2022-09-28T18:50:59.808Z,3.67
2022-09-28T18:53:14.667Z,3.13
2022-09-28T18:55:17.366Z,2.87
2022-09-28T18:57:20.095Z,2.80
2022-09-28T18:59:23.322Z,2.90
2022-09-28T19:01:31.300Z,3.60
2022-09-28T19:03:34.702Z,3.00
2022-09-28T19:05:43.274Z,2.90
2022-09-28T19:07:45.817Z,2.83
2022-09-28T19:09:48.385Z,2.90
2022-09-28T19:11:51.102Z,2.97
2022-09-28T19:13:55.079Z,2.77
2022-09-28T19:15:57.679Z,2.83
2022-09-28T19:18:00.349Z,1.97
2022-09-28T19:20:02.869Z,2.67
2022-09-28T19:22:05.718Z,2.60
2022-09-28T19:24:10.033Z,2.60
2022-09-28T19:26:22.738Z,2.50
2022-09-28T19:28:26.978Z,2.07
2022-09-28T19:30:29.554Z,2.47
2022-09-28T19:32:32.135Z,2.10
2022-09-28T19:34:34.728Z,2.20
2022-09-28T19:36:37.500Z,2.40
2022-09-28T19:38:40.794Z,2.23
2022-09-28T19:40:43.894Z,2.10
2022-09-28T19:42:46.543Z,2.10
2022-09-28T19:44:49.154Z,2.47
2022-09-28T19:46:53.821Z,2.20
2022-09-28T19:49:03.339Z,2.03
2022-09-28T19:51:07.527Z,1.90
2022-09-28T19:53:10.218Z,2.13
2022-09-28T19:55:12.946Z,1.80
2022-09-28T19:57:16.078Z,1.80
2022-09-28T19:59:19.325Z,2.10
2022-09-28T20:01:22.050Z,2.53
2022-09-28T20:03:28.353Z,1.83
2022-09-28T20:05:30.878Z,2.10
2022-09-28T20:07:35.038Z,2.03
2022-09-28T20:09:37.608Z,2.03
2022-09-28T20:11:40.165Z,1.90
2022-09-28T20:13:42.732Z,1.90
2022-09-28T20:15:45.504Z,2.00
2022-09-28T20:17:48.087Z,2.30
2022-09-28T20:19:51.985Z,1.70
2022-09-28T20:21:54.868Z,1.67
2022-09-28T20:23:57.760Z,1.60
2022-09-28T20:26:00.333Z,2.10
2022-09-28T20:28:02.990Z,1.90
2022-09-28T20:30:07.251Z,1.97
2022-09-28T20:32:11.601Z,1.87
2022-09-28T20:34:14.160Z,2.53
2022-09-28T20:36:20.479Z,2.47
2022-09-28T20:38:23.915Z,2.63
2022-09-28T20:40:27.279Z,2.60
2022-09-28T20:42:31.957Z,2.37
2022-09-28T20:44:34.517Z,2.10
2022-09-28T20:46:38.236Z,2.30
2022-09-28T20:48:41.306Z,2.20
2022-09-28T20:50:44.201Z,2.50
2022-09-28T20:52:46.968Z,2.40
2022-09-28T20:54:49.535Z,2.93
2022-09-28T20:56:52.157Z,2.50
2022-09-28T20:58:55.615Z,2.50
2022-09-28T21:01:17.307Z,2.70
2022-09-28T21:03:19.878Z,3.33
2022-09-28T21:05:22.422Z,3.20
2022-09-28T21:07:25.089Z,2.90
2022-09-28T21:09:29.546Z,3.67
2022-09-28T21:11:34.354Z,3.37
2022-09-28T21:13:36.887Z,3.30
2022-09-28T21:15:39.528Z,3.73
2022-09-28T21:17:43.570Z,3.15
2022-09-28T21:19:46.220Z,3.07
2022-09-28T21:21:48.738Z,3.07
2022-09-28T21:23:58.607Z,2.50
2022-09-28T21:26:07.739Z,2.87
2022-09-28T21:28:10.263Z,2.67
2022-09-28T21:30:13.163Z,1.97
2022-09-28T21:32:15.730Z,2.40
2022-09-28T21:34:20.858Z,2.20
2022-09-28T21:36:23.527Z,2.40
2022-09-28T21:38:26.071Z,1.83
2022-09-28T21:40:28.728Z,1.50
2022-09-28T21:42:31.281Z,1.80
2022-09-28T21:44:33.810Z,1.90
2022-09-28T21:46:38.151Z,1.83
2022-09-28T21:48:41.006Z,2.03
2022-09-28T21:51:13.736Z,1.75
2022-09-28T21:53:16.295Z,1.87
2022-09-28T21:55:21.229Z,2.10
2022-09-28T21:57:23.867Z,2.00
2022-09-28T21:59:26.414Z,2.50
2022-09-28T22:01:29.184Z,2.07
2022-09-28T22:03:33.725Z,2.20
2022-09-28T22:05:36.265Z,2.60
2022-09-28T22:07:41.320Z,2.00
2022-09-28T22:09:43.909Z,2.10
2022-09-28T22:11:49.080Z,2.23
2022-09-28T22:13:55.389Z,1.70
2022-09-28T22:15:58.803Z,2.27
2022-09-28T22:18:01.482Z,2.30
2022-09-28T22:20:14.776Z,2.67
2022-09-28T22:22:17.594Z,2.10
2022-09-28T22:24:20.347Z,2.20
2022-09-28T22:26:25.671Z,2.40
2022-09-28T22:28:28.811Z,2.80
2022-09-28T22:30:31.381Z,2.87
2022-09-28T22:32:42.571Z,2.27
2022-09-28T22:34:45.131Z,2.40
2022-09-28T22:36:47.685Z,2.50
2022-09-28T22:38:50.378Z,2.43
2022-09-28T22:40:55.649Z,3.30
2022-09-28T22:42:58.230Z,2.43
2022-09-28T22:45:00.773Z,3.10
2022-09-28T22:47:03.571Z,3.10
2022-09-28T22:49:09.006Z,3.00
2022-09-28T22:51:11.808Z,2.87
2022-09-28T22:53:15.154Z,3.00
2022-09-28T22:55:18.616Z,2.67
2022-09-28T22:57:21.704Z,2.80
2022-09-28T22:59:24.785Z,2.87
2022-09-28T23:01:30.029Z,4.33
2022-09-28T23:03:32.635Z,4.18
2022-09-28T23:05:35.374Z,3.40
2022-09-28T23:07:38.791Z,3.77
2022-09-28T23:09:41.356Z,3.90
2022-09-28T23:11:43.976Z,4.10
2022-09-28T23:13:51.541Z,4.10
2022-09-28T23:16:07.120Z,3.97
2022-09-28T23:18:10.335Z,4.07
2022-09-28T23:20:12.858Z,4.10
2022-09-28T23:22:15.457Z,4.73
2022-09-28T23:24:18.062Z,4.30
2022-09-28T23:26:25.644Z,4.30
2022-09-28T23:28:28.248Z,3.80
2022-09-28T23:30:30.828Z,4.40
2022-09-28T23:32:33.602Z,4.80
2022-09-28T23:34:36.159Z,4.87
2022-09-28T23:36:38.769Z,5.00
2022-09-28T23:38:41.541Z,4.77
2022-09-28T23:40:46.642Z,5.70
2022-09-28T23:42:49.343Z,5.60
2022-09-28T23:44:51.898Z,5.00
2022-09-28T23:46:55.710Z,4.73
2022-09-28T23:48:58.262Z,4.90
2022-09-28T23:51:01.817Z,5.40
2022-09-28T23:53:05.603Z,4.90
2022-09-28T23:55:08.727Z,5.10
2022-09-28T23:57:11.273Z,4.50
2022-09-28T23:59:13.956Z,4.70
